Tiempo atmosférico en la estación meteorológica de Doña Mencia, Córdoba (650 m.)



Fecha
DESCASC
Temp. máxima en grados centígrados (hora)
DESCASC
Temp. mínima en grados centígrados (hora)
DESCASC
Temp. media en grados centígrados
DESCASC
Racha de viento máxima en m/sg (hora)
DESCASC
Velocidad máxima media en intervalos de 10 minutos(hora)
DESCASC
Precipitaciones diarias en mm
DESCASC
Precipitaciones de 00:00 a 06:00 en mm
DESCASC
Precipitaciones de 06:00 a 12:00 en mm
DESCASC
Precipitaciones de 12:00 a 18:00 en mm
DESCASC
Precipitaciones de 18:00 a 24:00 en mm
DESCASC
24-09-2020 27.6 (14:40) 18.9 (05:50) 23.3 10.28 (16:20) 5.83 (17:40) 0 0 0 0 0
23-09-2020 25.5 (15:40) 17.6 (00:00) 21.6 11.11 (16:30) 6.39 (16:40) 0 0 0 0 0
22-09-2020 28.5 (17:00) 18.1 (00:00) 23.3 8.06 (23:20) 4.44 (23:30) 0 0 0 0 0
21-09-2020 27.6 (17:40) 17.5 (00:00) 22.6 6.39 (16:00) 3.33 (14:40) 0 0 0 0 0
20-09-2020 25.1 (17:10) 15.1 (00:00) 20.1 7.22 (16:50) 3.89 (18:20) 0 0 0 0 0
19-09-2020 23.9 (13:30) 17 (00:00) 20.4 10.56 (00:40) 5.83 (03:00) 1.2 0 0 1.1 0.1
18-09-2020 26.2 (14:40) 18.8 (00:00) 22.5 17.5 (15:20) 10 (04:40) 0.8 0 0.8 0 0
17-09-2020 30.2 (15:20) 20.3 (00:00) 25.3 16.67 (20:30) 7.78 (18:30) 0 0 0 0 0
16-09-2020 31.7 (15:30) 19.8 (00:00) 25.8 9.17 (22:20) 5.28 (22:20) 0 0 0 0 0
15-09-2020 30.6 (16:50) 17.8 (00:00) 24.2 9.72 (17:50) 5 (17:50) 0 0 0 0 0
14-09-2020 30.6 (18:30) 21.4 (00:00) 26 9.44 (02:50) 5.28 (21:20) 0 0 0 0 0
13-09-2020 33.6 (18:40) 23.9 (00:00) 28.7 10 (08:10) 5.28 (08:10) 0 0 0 0 0
12-09-2020 35.8 (17:20) 21.7 (00:00) 28.8 7.5 (18:30) 5 (10:00) 0 0 0 0 0
11-09-2020 32.5 (17:00) 21.1 (00:00) 26.8 8.33 (17:00) 4.72 (20:00) 0 0 0 0 0
10-09-2020 32.9 (19:00) 19.5 (00:00) 26.2 6.67 (14:40) 3.61 (14:20) 0 0 0 0 0
09-09-2020 30.7 (18:10) 17.5 (00:00) 24.1 6.94 (17:10) 3.89 (09:00) 0 0 0 0 0
08-09-2020 30.3 (14:30) 19.4 (00:00) 24.8 9.17 (20:10) 5.83 (18:10) 0 0 0 0 0
07-09-2020 34.6 (16:50) 21.1 (05:00) 27.8 8.89 (00:30) 4.72 (00:40) 0 0 0 0 0
06-09-2020 33.8 (17:40) 20.2 (00:00) 27 7.22 (23:40) 3.89 (03:00) 0 0 0 0 0
05-09-2020 33.4 (17:50) 19.1 (00:00) 26.3 7.78 (08:30) 6.11 (08:30) 0 0 0 0 0
04-09-2020 33.5 (17:50) 19.1 (00:00) 26.3 11.11 (02:00) 5.83 (19:10) 0 0 0 0 0
03-09-2020 33.8 (18:20) 19.6 (00:00) 26.7 15.83 (14:40) 5.56 (19:40) 0 0 0 0 0
02-09-2020 31.5 (18:10) 19.1 (00:00) 25.3 7.5 (20:20) 4.72 (20:20) 0 0 0 0 0
01-09-2020 29.4 (18:10) 18.1 (00:00) 23.8 9.17 (23:10) 4.17 (23:40) 0 0 0 0 0
31-08-2020 31.1 (17:40) 17.3 (00:00) 24.2 7.5 (19:40) 5 (19:20) 0 0 0 0 0
30-08-2020 29.4 (17:40) 17.6 (00:00) 23.5 6.39 (17:50) 3.89 (11:10) 0 0 0 0 0
29-08-2020 27.3 (18:50) 15.2 (00:00) 21.2 9.17 (15:10) 5 (13:10) 0 0 0 0 0
28-08-2020 32.3 (18:20) 23 (00:00) 27.6 11.67 (16:40) 6.67 (18:00) 0 0 0 0 0
27-08-2020 37.7 (17:20) 26.5 (00:00) 32.1 10.83 (18:10) 5.83 (18:10) 0 0 0 0 0
26-08-2020 38.1 (18:20) 23.9 (00:00) 31 7.22 (02:30) 3.89 (18:30) 0 0 0 0 0

Gráficas

Temp. máximas Temp. mínimas Temp. medias Precipitaciones Rachas de viento máximas Velocidades máximas media en intervalos de 10 minutos

Datos horarios

Fecha y hora oficial Temperatura (ºC) Velocidad del viento (km/h) Dirección del viento Racha (km/h) Dirección de racha Precipitación (mm) Presión (hPa) Tendencia (hPa) Humedad (%)
2020-09-24 23:00:00 21.1 5 Noroeste 12 Noroeste 0 -- -- 66
2020-09-24 22:00:00 21.4 3 Noroeste 10 Noroeste 0 -- -- 65
2020-09-24 21:00:00 21.8 3 Noroeste 17 Noroeste 0 -- -- 63
2020-09-24 20:00:00 22.9 10 Noroeste 29 Noroeste 0 -- -- 55
2020-09-24 19:00:00 24.1 17 Noroeste 33 Noroeste 0 -- -- 47
2020-09-24 18:00:00 26.5 18 Noroeste 32 Oeste 0 -- -- 44
2020-09-24 17:00:00 26.9 14 Noroeste 37 Oeste 0 -- -- 45
2020-09-24 16:00:00 26.3 19 Noroeste 35 Noroeste 0 -- -- 46
2020-09-24 15:00:00 26 16 Oeste 32 Oeste 0 -- -- 47
2020-09-24 14:00:00 26.3 13 Oeste 27 Noroeste 0 -- -- 50
2020-09-24 13:00:00 25.6 12 Oeste 20 Oeste 0 -- -- 54
2020-09-24 12:00:00 24.2 13 Noroeste 21 Noroeste 0 -- -- 62
2020-09-24 11:00:00 21.1 8 Noroeste 14 Oeste 0 -- -- 81
2020-09-24 10:00:00 19.5 4 Noroeste 12 Noroeste 0 -- -- 89
2020-09-24 09:00:00 19.3 6 Este 11 Este 0 -- -- 87
2020-09-24 08:00:00 19.2 4 Noroeste 7 Noroeste 0 -- -- 85
2020-09-24 07:00:00 19.3 5 Noroeste 8 Norte 0 -- -- 85
2020-09-24 06:00:00 19 2 Noroeste 12 Noroeste 0 -- -- 84
2020-09-24 05:00:00 19.3 3 Norte 10 Oeste 0 -- -- 82
2020-09-24 04:00:00 19.3 3 Oeste 16 Oeste 0 -- -- 80
2020-09-24 03:00:00 19.4 6 Noroeste 14 Noroeste 0 -- -- 79
2020-09-24 02:00:00 19.5 5 Noroeste 19 Oeste 0 -- -- 74
2020-09-24 01:00:00 20.6 11 Oeste 19 Noroeste 0 -- -- 69
2020-09-24 00:00:00 21.1 9 Oeste 19 Oeste 0 -- -- 65
2020-09-23 23:00:00 21.4 10 Oeste 20 Oeste 0 -- -- 63
2020-09-23 22:00:00 21.7 12 Oeste 22 Oeste 0 -- -- 61
2020-09-23 21:00:00 21.7 9 Oeste 17 Oeste 0 -- -- 60
2020-09-23 20:00:00 22.1 12 Oeste 27 Oeste 0 -- -- 58
2020-09-23 19:00:00 24.3 16 Oeste 33 Oeste 0 -- -- 53
2020-09-23 18:00:00 24.5 17 Oeste 37 Noroeste 0 -- -- 52
2020-09-23 17:00:00 23.8 18 Oeste 40 Oeste 0 -- -- 54
2020-09-23 16:00:00 24.6 21 Noroeste 39 Oeste 0 -- -- 52
2020-09-23 15:00:00 24.7 18 Oeste 35 Oeste 0 -- -- 52
2020-09-23 14:00:00 23.5 20 Oeste 33 Oeste 0 -- -- 54
2020-09-23 13:00:00 23.5 15 Oeste 30 Oeste 0 -- -- 54
2020-09-23 12:00:00 21.9 17 Oeste 33 Oeste 0 -- -- 57
2020-09-23 11:00:00 20.9 15 Noroeste 24 Oeste 0 -- -- 60
2020-09-23 10:00:00 19.9 7 Noroeste 10 Noroeste 0 -- -- 60
2020-09-23 09:00:00 19.2 0 Calma 11 Noroeste 0 -- -- 63
2020-09-23 08:00:00 18.3 6 Noroeste 13 Noroeste 0 -- -- 63
2020-09-23 07:00:00 17.6 5 Noroeste 16 Noroeste 0 -- -- 64
2020-09-23 06:00:00 19.2 8 Oeste 17 Noroeste 0 -- -- 61
2020-09-23 05:00:00 18.9 3 Noroeste 19 Oeste 0 -- -- 61
2020-09-23 04:00:00 19.3 11 Oeste 30 Oeste 0 -- -- 61
2020-09-23 03:00:00 19.4 20 Oeste 33 Oeste 0 -- -- 61
2020-09-23 02:00:00 18.8 12 Noroeste 27 Oeste 0 -- -- 64
2020-09-23 01:00:00 19.4 22 Oeste 34 Oeste 0 -- -- 62
2020-09-23 00:00:00 19.9 15 Noroeste 29 Oeste 0 -- -- 58
2020-09-22 23:00:00 21.4 14 Noroeste 26 Oeste 0 -- -- 51
2020-09-22 22:00:00 22.2 9 Noroeste 20 Noroeste 0 -- -- 44
2020-09-22 21:00:00 22.8 8 Noroeste 14 Noroeste 0 -- -- 41
2020-09-22 20:00:00 24.2 8 Oeste 20 Oeste 0 -- -- 38
2020-09-22 19:00:00 25.5 14 Oeste 23 Oeste 0 -- -- 36
2020-09-22 18:00:00 27.2 12 Oeste 24 Oeste 0 -- -- 34
2020-09-22 17:00:00 27.8 13 Oeste 24 Oeste 0 -- -- 33
2020-09-22 16:00:00 28.1 10 Oeste 22 Noroeste 0 -- -- 35
2020-09-22 15:00:00 27.2 9 Noroeste 21 Oeste 0 -- -- 38
2020-09-22 14:00:00 26.1 8 Noroeste 18 Oeste 0 -- -- 42
2020-09-22 13:00:00 24.6 5 Noroeste 14 Noroeste 0 -- -- 46
2020-09-22 12:00:00 23.3 6 Oeste 13 Oeste 0 -- -- 50
2020-09-22 11:00:00 21.5 4 Oeste 9 Oeste 0 -- -- 53
2020-09-22 10:00:00 20.4 0 Calma 10 Este 0 -- -- 54
2020-09-22 09:00:00 18.2 6 Nordeste 9 Nordeste 0 -- -- 58
2020-09-22 08:00:00 18.8 0 Calma 4 Norte 0 -- -- 55
2020-09-22 07:00:00 18.9 3 Norte 13 Este 0 -- -- 56
2020-09-22 06:00:00 18.8 10 Este 13 Sudeste 0 -- -- 60
2020-09-22 05:00:00 18.8 10 Este 12 Este 0 -- -- 61
2020-09-22 04:00:00 19.7 0 Calma 4 Nordeste 0 -- -- 58
2020-09-22 03:00:00 20 0 Calma 11 Norte 0 -- -- 55
2020-09-22 02:00:00 20.7 6 Noroeste 14 Noroeste 0 -- -- 53
2020-09-22 01:00:00 21.5 5 Noroeste 12 Oeste 0 -- -- 51
2020-09-22 00:00:00 21.5 4 Noroeste 7 Noroeste 0 -- -- 50
2020-09-21 23:00:00 21.9 0 Calma 6 Noroeste 0 -- -- 49
2020-09-21 22:00:00 22.2 0 Calma 4 Sudeste 0 -- -- 47
2020-09-21 21:00:00 22.3 0 Calma 8 Noroeste 0 -- -- 46
2020-09-21 20:00:00 24.2 6 Noroeste 15 Oeste 0 -- -- 41
2020-09-21 19:00:00 26 8 Noroeste 17 Noroeste 0 -- -- 38
2020-09-21 18:00:00 26.6 11 Oeste 22 Noroeste 0 -- -- 37
2020-09-21 17:00:00 27.4 8 Noroeste 23 Noroeste 0 -- -- 37
2020-09-21 16:00:00 26.8 8 Noroeste 23 Noroeste 0 -- -- 38
2020-09-21 15:00:00 25.5 10 Noroeste 22 Noroeste 0 -- -- 41
2020-09-21 14:00:00 25.1 10 Noroeste 22 Noroeste 0 -- -- 47
2020-09-21 13:00:00 23 6 Norte 13 Norte 0 -- -- 55
2020-09-21 12:00:00 22 5 Oeste 10 Oeste 0 -- -- 71
2020-09-21 11:00:00 20.3 3 Oeste 9 Noroeste 0 -- -- 77
2020-09-21 10:00:00 19.7 6 Este 10 Este 0 -- -- 78
2020-09-21 09:00:00 17.8 0 Calma 4 Este 0 -- -- 83
2020-09-21 08:00:00 17.5 0 Calma 7 Nordeste 0 -- -- 82
2020-09-21 07:00:00 17.5 7 Este 12 Este 0 -- -- 80
2020-09-21 06:00:00 18.5 0 Calma 5 Nordeste 0 -- -- 77
2020-09-21 05:00:00 18.9 0 Calma 5 Noroeste 0 -- -- 76
2020-09-21 04:00:00 18.8 0 Calma 7 Noroeste 0 -- -- 75
2020-09-21 03:00:00 18.7 3 Noroeste 8 Oeste 0 -- -- 75
2020-09-21 02:00:00 18.8 4 Noroeste 13 Oeste 0 -- -- 72
2020-09-21 01:00:00 19.4 0 Calma 4 Oeste 0 -- -- 64
2020-09-21 00:00:00 19.6 0 Calma 6 Norte 0 -- -- 63
2020-09-20 23:00:00 19.8 4 Noroeste 9 Noroeste 0 -- -- 62
2020-09-20 22:00:00 19.9 4 Noroeste 9 Norte 0 -- -- 61
2020-09-20 21:00:00 20.3 4 Noroeste 12 Noroeste 0 -- -- 57
2020-09-20 20:00:00 21.5 9 Oeste 14 Noroeste 0 -- -- 53
2020-09-20 19:00:00 22.8 12 Noroeste 23 Noroeste 0 -- -- 50
2020-09-20 18:00:00 23.6 12 Noroeste 22 Noroeste 0 -- -- 51
2020-09-20 17:00:00 24.2 12 Noroeste 26 Oeste 0 -- -- 51
2020-09-20 16:00:00 22.9 12 Noroeste 25 Noroeste 0 -- -- 56
2020-09-20 15:00:00 24.1 10 Oeste 20 Noroeste 0 -- -- 57
2020-09-20 14:00:00 23.6 8 Noroeste 17 Noroeste 0 -- -- 57
2020-09-20 13:00:00 22.4 8 Noroeste 15 Noroeste 0 -- -- 63
2020-09-20 12:00:00 21.1 5 Noroeste 11 Noroeste 0 -- -- 69
2020-09-20 11:00:00 19 3 Sudoeste 6 Oeste 0 -- -- 77
2020-09-20 10:00:00 17 0 Calma 4 Este 0 -- -- 85
2020-09-20 09:00:00 15.5 0 Calma 4 Norte 0 -- -- 85
2020-09-20 08:00:00 15.1 2 Norte 6 Noroeste 0 -- -- 80
2020-09-20 07:00:00 15.4 3 Este 8 Norte 0 -- -- 78
2020-09-20 06:00:00 15.7 3 Norte 13 Noroeste 0 -- -- 76
2020-09-20 05:00:00 16.2 8 Noroeste 14 Norte 0 -- -- 73
2020-09-20 04:00:00 16.1 7 Noroeste 11 Noroeste 0 -- -- 77
2020-09-20 03:00:00 16.4 9 Noroeste 14 Noroeste 0 -- -- 78
2020-09-20 02:00:00 16.5 7 Noroeste 19 Oeste 0 -- -- 77
2020-09-20 01:00:00 17 10 Oeste 25 Oeste 0 -- -- 83
2020-09-20 00:00:00 17.7 9 Noroeste 21 Noroeste 0 -- -- 95
2020-09-19 23:00:00 18.3 8 Oeste 17 Noroeste 0 -- -- 90
2020-09-19 22:00:00 18.4 6 Noroeste 18 Norte 0 -- -- 87
2020-09-19 21:00:00 18.6 9 Noroeste 26 Oeste 0 -- -- 81
2020-09-19 20:00:00 19.3 12 Oeste 26 Oeste 0 -- -- 71
2020-09-19 19:00:00 19.7 12 Oeste 21 Oeste 0.1 -- -- 81
2020-09-19 18:00:00 18 15 Oeste 25 Noroeste 0.3 -- -- 99
2020-09-19 17:00:00 19.3 9 Oeste 26 Noroeste 0.2 -- -- 99
2020-09-19 16:00:00 18.5 12 Oeste 24 Oeste 0.5 -- -- 99
2020-09-19 15:00:00 18.7 12 Noroeste 25 Oeste 0.1 -- -- 94
2020-09-19 14:00:00 21.8 15 Oeste 29 Noroeste 0 -- -- 65
2020-09-19 13:00:00 22 13 Oeste 24 Oeste 0 -- -- 65
2020-09-19 12:00:00 21.2 12 Oeste 27 Sudoeste 0 -- -- 67
2020-09-19 11:00:00 19.3 14 Oeste 24 Sudoeste 0 -- -- 75
2020-09-19 10:00:00 19 12 Oeste 23 Oeste 0 -- -- 76
2020-09-19 09:00:00 17.9 12 Oeste 26 Oeste 0 -- -- 82
2020-09-19 08:00:00 17.6 16 Oeste 28 Noroeste 0 -- -- 81
2020-09-19 07:00:00 17.6 18 Oeste 35 Oeste 0 -- -- 82
2020-09-19 06:00:00 17.3 12 Oeste 27 Oeste 0 -- -- 86
2020-09-19 05:00:00 17.6 12 Oeste 31 Oeste 0 -- -- 85
2020-09-19 04:00:00 17.6 17 Oeste 33 Oeste 0 -- -- 83
2020-09-19 03:00:00 18.4 21 Oeste 33 Oeste 0 -- -- 79
2020-09-19 02:00:00 19.1 14 Sudoeste 36 Oeste 0 -- -- 77
2020-09-19 01:00:00 19.2 14 Sudoeste 38 Sudoeste 0 -- -- 77
2020-09-19 00:00:00 19.2 14 Oeste 31 Oeste 0 -- -- 77
2020-09-18 23:00:00 20.1 16 Oeste 39 Sudoeste 0 -- -- 71
2020-09-18 22:00:00 20.4 18 Sudoeste 39 Oeste 0 -- -- 67
2020-09-18 21:00:00 20.9 18 Sudoeste 50 Sudoeste 0 -- -- 64
2020-09-18 20:00:00 21.7 23 Sudoeste 58 Sur 0 -- -- 63
2020-09-18 19:00:00 22.8 24 Sudoeste 49 Sudoeste 0 -- -- 63
2020-09-18 18:00:00 23.7 24 Sudoeste 57 Oeste 0 -- -- 59
2020-09-18 17:00:00 23.8 27 Sudoeste 59 Oeste 0 -- -- 61
2020-09-18 16:00:00 23.3 27 Sudoeste 63 Sudoeste 0 -- -- 62
2020-09-18 15:00:00 24 26 Oeste 58 Sudoeste 0 -- -- 59
2020-09-18 14:00:00 24.9 19 Sudoeste 60 Sudoeste 0 -- -- 57
2020-09-18 13:00:00 24.3 20 Sudoeste 50 Oeste 0 -- -- 61
2020-09-18 12:00:00 23.5 19 Sudoeste 50 Sur 0 -- -- 64
2020-09-18 11:00:00 22.8 18 Sudoeste 50 Sur 0 -- -- 66
2020-09-18 10:00:00 20.8 12 Sur 44 Sur 0 -- -- 78
2020-09-18 09:00:00 19.7 12 Sur 37 Sudeste 0.8 -- -- 86
2020-09-18 08:00:00 20.5 9 Sudoeste 32 Oeste 0 -- -- 73
2020-09-18 07:00:00 20.2 18 Sudoeste 43 Sur 0 -- -- 73
2020-09-18 06:00:00 20.6 24 Sudoeste 55 Sur 0 -- -- 70
2020-09-18 05:00:00 20.8 26 Sur 57 Sur 0 -- -- 68
2020-09-18 04:00:00 21.2 28 Sur 56 Sur 0 -- -- 65
2020-09-18 03:00:00 21.6 27 Sur 59 Sudeste 0 -- -- 62
2020-09-18 02:00:00 21.6 18 Sudoeste 60 Sudoeste 0 -- -- 60
2020-09-18 01:00:00 22.4 20 Sudoeste 47 Sur 0 -- -- 56
2020-09-18 00:00:00 23.1 22 Sudoeste 50 Sudoeste 0 -- -- 54
2020-09-17 23:00:00 22.8 23 Sur 49 Sur 0 -- -- 55
2020-09-17 22:00:00 23.7 23 Sudoeste 56 Sur 0 -- -- 51
2020-09-17 21:00:00 24.4 22 Sudoeste 60 Sudoeste 0 -- -- 49
2020-09-17 20:00:00 26.1 24 Sur 55 Sudeste 0 -- -- 47
2020-09-17 19:00:00 27.6 21 Sur 55 Sur 0 -- -- 44
2020-09-17 18:00:00 28.1 14 Sur 39 Sudoeste 0 -- -- 44
2020-09-17 17:00:00 28.6 12 Oeste 36 Oeste 0 -- -- 43
2020-09-17 16:00:00 29.4 14 Oeste 33 Oeste 0 -- -- 42
2020-09-17 15:00:00 30 9 Oeste 40 Sudeste 0 -- -- 44
2020-09-17 14:00:00 27.3 12 Sudoeste 39 Sudoeste 0 -- -- 48
2020-09-17 13:00:00 27.3 17 Sudoeste 43 Sudoeste 0 -- -- 49
2020-09-17 12:00:00 26.3 13 Oeste 43 Sudoeste 0 -- -- 53
2020-09-17 11:00:00 24.9 8 Sudoeste 37 Sudeste 0 -- -- 56
2020-09-17 10:00:00 24.5 8 Sudoeste 33 Sur 0 -- -- 59
2020-09-17 09:00:00 23.6 17 Sur 37 Oeste 0 -- -- 62
2020-09-17 08:00:00 23.2 17 Sudoeste 40 Sudoeste 0 -- -- 64
2020-09-17 07:00:00 23.1 16 Sudoeste 38 Sur 0 -- -- 64
2020-09-17 06:00:00 22.7 13 Sudoeste 29 Sudoeste 0 -- -- 68
2020-09-17 05:00:00 20.5 2 Oeste 17 Sudoeste 0 -- -- 78
2020-09-17 04:00:00 21.1 7 Noroeste 12 Noroeste 0 -- -- 64
2020-09-17 03:00:00 22.3 4 Noroeste 22 Oeste 0 -- -- 56
2020-09-17 02:00:00 24.5 12 Sur 34 Sur 0 -- -- 51
2020-09-17 01:00:00 22.5 16 Sudeste 38 Sudeste 0 -- -- 56
2020-09-17 00:00:00 22.4 15 Sur 32 Sur 0 -- -- 55
2020-09-16 23:00:00 22.9 8 Oeste 33 Oeste 0 -- -- 53
2020-09-16 22:00:00 25.2 14 Sudoeste 31 Oeste 0 -- -- 43
2020-09-16 21:00:00 26.6 13 Sudoeste 32 Sudoeste 0 -- -- 43
2020-09-16 20:00:00 27.1 17 Sudoeste 33 Oeste 0 -- -- 41
2020-09-16 19:00:00 27.8 17 Oeste 32 Oeste 0 -- -- 38
2020-09-16 18:00:00 29.4 13 Oeste 26 Oeste 0 -- -- 35
2020-09-16 17:00:00 31.2 11 Oeste 25 Oeste 0 -- -- 34
2020-09-16 16:00:00 29.6 16 Oeste 31 Oeste 0 -- -- 35
2020-09-16 15:00:00 30.2 10 Noroeste 20 Noroeste 0 -- -- 39
2020-09-16 14:00:00 27.5 7 Noroeste 15 Noroeste 0 -- -- 47
2020-09-16 13:00:00 27.3 5 Oeste 15 Oeste 0 -- -- 48
2020-09-16 12:00:00 27.1 5 Nordeste 21 Este 0 -- -- 49
2020-09-16 11:00:00 25.7 8 Este 19 Sudeste 0 -- -- 51
2020-09-16 10:00:00 23.6 0 Calma 16 Este 0 -- -- 55
2020-09-16 09:00:00 21.6 8 Este 11 Este 0 -- -- 57
2020-09-16 08:00:00 21.1 4 Este 8 Nordeste 0 -- -- 55
2020-09-16 07:00:00 21.3 5 Norte 6 Norte 0 -- -- 54
2020-09-16 06:00:00 21.7 4 Norte 12 Oeste 0 -- -- 54
2020-09-16 05:00:00 22.3 6 Noroeste 14 Norte 0 -- -- 54
2020-09-16 04:00:00 22.1 4 Norte 14 Noroeste 0 -- -- 55
2020-09-16 03:00:00 22 6 Noroeste 16 Noroeste 0 -- -- 54
2020-09-16 02:00:00 22.4 3 Norte 17 Oeste 0 -- -- 55
2020-09-16 01:00:00 23 5 Noroeste 12 Noroeste 0 -- -- 53
2020-09-16 00:00:00 23.4 6 Noroeste 16 Noroeste 0 -- -- 52
2020-09-15 23:00:00 23.9 6 Norte 15 Noroeste 0 -- -- 49
2020-09-15 22:00:00 24.9 5 Noroeste 13 Noroeste 0 -- -- 47
2020-09-15 21:00:00 25.4 8 Noroeste 14 Noroeste 0 -- -- 46
2020-09-15 20:00:00 27.4 12 Oeste 24 Noroeste 0 -- -- 45
2020-09-15 19:00:00 28.5 14 Noroeste 30 Oeste 0 -- -- 46
2020-09-15 18:00:00 29.7 13 Oeste 35 Noroeste 0 -- -- 45
2020-09-15 17:00:00 29.7 15 Oeste 27 Oeste 0 -- -- 45
2020-09-15 16:00:00 28.6 17 Oeste 32 Noroeste 0 -- -- 48
2020-09-15 15:00:00 28 11 Noroeste 23 Noroeste 0 -- -- 53
2020-09-15 14:00:00 27 8 Noroeste 19 Noroeste 0 -- -- 58
2020-09-15 13:00:00 25.4 8 Oeste 19 Oeste 0 -- -- 61
2020-09-15 12:00:00 24.3 6 Norte 18 Este 0 -- -- 70
2020-09-15 11:00:00 22.6 3 Este 14 Este 0 -- -- 77
2020-09-15 10:00:00 20.8 4 Este 17 Este 0 -- -- 87
2020-09-15 09:00:00 18.7 3 Sudeste 14 Sudeste 0 -- -- 95
2020-09-15 08:00:00 18.3 7 Este 12 Este 0 -- -- 96
2020-09-15 07:00:00 18 9 Este 11 Este 0 -- -- 95
2020-09-15 06:00:00 18.6 0 Calma 11 Noroeste 0 -- -- 97
2020-09-15 05:00:00 19.4 8 Noroeste 15 Norte 0 -- -- 89
2020-09-15 04:00:00 19.3 7 Noroeste 17 Noroeste 0 -- -- 93
2020-09-15 03:00:00 19.9 8 Noroeste 14 Noroeste 0 -- -- 87
2020-09-15 02:00:00 20.6 10 Noroeste 15 Noroeste 0 -- -- 70
2020-09-15 01:00:00 21.2 7 Noroeste 17 Noroeste 0 -- -- 66
2020-09-15 00:00:00 21.9 10 Noroeste 24 Noroeste 0 -- -- 63
2020-09-14 23:00:00 22.6 14 Noroeste 26 Oeste 0 -- -- 61
2020-09-14 22:00:00 23.6 9 Noroeste 31 Oeste 0 -- -- 56
2020-09-14 21:00:00 24.7 8 Noroeste 23 Noroeste 0 -- -- 52
2020-09-14 20:00:00 26.6 13 Noroeste 27 Noroeste 0 -- -- 46
2020-09-14 19:00:00 29 13 Oeste 21 Oeste 0 -- -- 43
2020-09-14 18:00:00 28.6 12 Oeste 21 Noroeste 0 -- -- 43
2020-09-14 17:00:00 28.6 12 Noroeste 25 Oeste 0 -- -- 45
2020-09-14 16:00:00 28.9 8 Oeste 30 Oeste 0 -- -- 42
2020-09-14 15:00:00 29.4 15 Oeste 27 Oeste 0 -- -- 42
2020-09-14 14:00:00 29.8 7 Noroeste 18 Norte 0 -- -- 43
2020-09-14 13:00:00 28.1 6 Noroeste 15 Oeste 0 -- -- 47
2020-09-14 12:00:00 26.9 5 Noroeste 12 Noroeste 0 -- -- 50
2020-09-14 11:00:00 25.6 0 Calma 8 Noroeste 0 -- -- 53
2020-09-14 10:00:00 22.7 0 Calma 3 Sudeste 0 -- -- 58
2020-09-14 09:00:00 21.7 2 Sudeste 5 Noroeste 0 -- -- 57
2020-09-14 08:00:00 21.7 0 Calma 5 Noroeste 0 -- -- 55
2020-09-14 07:00:00 21.6 2 Este 20 Nordeste 0 -- -- 55
2020-09-14 06:00:00 23.2 16 Nordeste 23 Nordeste 0 -- -- 52
2020-09-14 05:00:00 23.1 13 Nordeste 22 Este 0 -- -- 51
2020-09-14 04:00:00 23.7 10 Este 26 Este 0 -- -- 49
2020-09-14 03:00:00 24.7 13 Sudeste 34 Este 0 -- -- 47
2020-09-14 02:00:00 25.3 19 Este 32 Este 0 -- -- 47
2020-09-14 01:00:00 26.1 16 Sudeste 32 Sur 0 -- -- 46
2020-09-14 00:00:00 24 4 Norte 10 Noroeste 0 -- -- 50
2020-09-13 23:00:00 24.7 0 Calma 13 Noroeste 0 -- -- 48
2020-09-13 22:00:00 25.6 5 Noroeste 15 Oeste 0 -- -- 46
2020-09-13 21:00:00 26.4 5 Noroeste 20 Noroeste 0 -- -- 44
2020-09-13 20:00:00 29.7 9 Oeste 18 Oeste 0 -- -- 38
2020-09-13 19:00:00 32.9 4 Oeste 15 Noroeste 0 -- -- 35
2020-09-13 18:00:00 32.6 6 Oeste 17 Oeste 0 -- -- 36
2020-09-13 17:00:00 32.4 6 Noroeste 18 Oeste 0 -- -- 36
2020-09-13 16:00:00 30.5 7 Noroeste 17 Oeste 0 -- -- 38
2020-09-13 15:00:00 29.8 13 Oeste 18 Oeste 0 -- -- 38
2020-09-13 14:00:00 31.1 10 Oeste 16 Noroeste 0 -- -- 39
2020-09-13 13:00:00 30 6 Noroeste 13 Oeste 0 -- -- 40
2020-09-13 12:00:00 27.5 5 Noroeste 14 Noroeste 0 -- -- 43
2020-09-13 11:00:00 26.9 6 Noroeste 13 Oeste 0 -- -- 43
2020-09-13 10:00:00 26.3 0 Calma 13 Sudeste 0 -- -- 42
2020-09-13 09:00:00 25.3 9 Este 36 Este 0 -- -- 41
2020-09-13 08:00:00 24.9 14 Sudeste 30 Sudeste 0 -- -- 41
2020-09-13 07:00:00 25.2 15 Este 23 Este 0 -- -- 42
2020-09-13 06:00:00 24.9 15 Sudeste 26 Sudeste 0 -- -- 43
2020-09-13 05:00:00 24.5 14 Este 23 Este 0 -- -- 43
2020-09-13 04:00:00 25.2 14 Este 22 Este 0 -- -- 42
2020-09-13 03:00:00 25.4 10 Nordeste 18 Este 0 -- -- 42
2020-09-13 02:00:00 25.2 2 Norte 22 Este 0 -- -- 41
2020-09-13 01:00:00 27.3 7 Este 18 Este 0 -- -- 40
2020-09-13 00:00:00 26.2 2 Nordeste 12 Noroeste 0 -- -- 41
2020-09-12 23:00:00 25.9 6 Norte 15 Norte 0 -- -- 40
2020-09-12 22:00:00 26.5 7 Noroeste 17 Noroeste 0 -- -- 39
2020-09-12 21:00:00 27.4 8 Noroeste 17 Oeste 0 -- -- 37
2020-09-12 20:00:00 29.9 10 Oeste 21 Oeste 0 -- -- 34
2020-09-12 19:00:00 32.5 14 Oeste 27 Oeste 0 -- -- 33
2020-09-12 18:00:00 33.9 12 Oeste 22 Oeste 0 -- -- 32
2020-09-12 17:00:00 34.4 3 Oeste 20 Noroeste 0 -- -- 32
2020-09-12 16:00:00 35 11 Noroeste 21 Oeste 0 -- -- 33
2020-09-12 15:00:00 33.1 7 Oeste 21 Oeste 0 -- -- 36
2020-09-12 14:00:00 32.3 8 Noroeste 19 Oeste 0 -- -- 37
2020-09-12 13:00:00 32 0 Calma 18 Este 0 -- -- 37
2020-09-12 12:00:00 30.9 6 Este 22 Nordeste 0 -- -- 40
2020-09-12 11:00:00 28.1 14 Este 26 Este 0 -- -- 43
2020-09-12 10:00:00 25.8 18 Este 23 Este 0 -- -- 44
2020-09-12 09:00:00 22.8 15 Este 23 Este 0 -- -- 47
2020-09-12 08:00:00 22.4 14 Este 19 Este 0 -- -- 47
2020-09-12 07:00:00 22.9 13 Este 19 Este 0 -- -- 46
2020-09-12 06:00:00 22.5 15 Este 20 Este 0 -- -- 47
2020-09-12 05:00:00 22.8 16 Este 18 Este 0 -- -- 47
2020-09-12 04:00:00 22.8 3 Norte 20 Este 0 -- -- 46
2020-09-12 03:00:00 24 9 Este 14 Este 0 -- -- 45
2020-09-12 02:00:00 23.5 6 Norte 14 Norte 0 -- -- 45
2020-09-12 01:00:00 24.1 9 Norte 14 Norte 0 -- -- 44
2020-09-12 00:00:00 24.7 8 Norte 14 Norte 0 -- -- 44
2020-09-11 23:00:00 24.9 8 Noroeste 17 Noroeste 0 -- -- 43
2020-09-11 22:00:00 25.7 6 Noroeste 15 Oeste 0 -- -- 42
2020-09-11 21:00:00 26.8 11 Noroeste 22 Oeste 0 -- -- 41
2020-09-11 20:00:00 28.3 17 Oeste 26 Oeste 0 -- -- 40
2020-09-11 19:00:00 30.2 8 Noroeste 17 Norte 0 -- -- 38
2020-09-11 18:00:00 30.2 9 Noroeste 28 Noroeste 0 -- -- 38
2020-09-11 17:00:00 32.5 8 Noroeste 30 Norte 0 -- -- 38
2020-09-11 16:00:00 30.2 6 Noroeste 17 Noroeste 0 -- -- 40
2020-09-11 15:00:00 30.6 11 Noroeste 17 Oeste 0 -- -- 40
2020-09-11 14:00:00 28.9 5 Oeste 18 Oeste 0 -- -- 43
2020-09-11 13:00:00 28.2 10 Noroeste 17 Noroeste 0 -- -- 44
2020-09-11 12:00:00 27.6 7 Noroeste 19 Noroeste 0 -- -- 45
2020-09-11 11:00:00 25.6 3 Oeste 8 Noroeste 0 -- -- 48
2020-09-11 10:00:00 23.7 2 Oeste 5 Noroeste 0 -- -- 50
2020-09-11 09:00:00 21.9 3 Noroeste 10 Este 0 -- -- 51
2020-09-11 08:00:00 21.6 6 Nordeste 9 Este 0 -- -- 50
2020-09-11 07:00:00 22.5 5 Norte 11 Norte 0 -- -- 50
2020-09-11 06:00:00 22.2 4 Norte 13 Noroeste 0 -- -- 50
2020-09-11 05:00:00 23.4 6 Norte 17 Noroeste 0 -- -- 49
2020-09-11 04:00:00 23.9 8 Noroeste 14 Noroeste 0 -- -- 48
2020-09-11 03:00:00 23.9 7 Noroeste 22 Noroeste 0 -- -- 49
2020-09-11 02:00:00 23.4 9 Noroeste 17 Oeste 0 -- -- 43
2020-09-11 01:00:00 25.7 6 Noroeste 13 Noroeste 0 -- -- 38
2020-09-11 00:00:00 26 0 Calma 6 Noroeste 0 -- -- 38
2020-09-10 23:00:00 26.5 4 Noroeste 6 Norte 0 -- -- 36
2020-09-10 22:00:00 27.1 2 Norte 5 Nordeste 0 -- -- 36
2020-09-10 21:00:00 27.1 4 Este 7 Este 0 -- -- 35
2020-09-10 20:00:00 30.7 2 Sudeste 13 Sudeste 0 -- -- 33
2020-09-10 19:00:00 32.8 3 Nordeste 17 Nordeste 0 -- -- 32
2020-09-10 18:00:00 32.1 4 Este 19 Nordeste 0 -- -- 33
2020-09-10 17:00:00 32.8 6 Nordeste 23 Noroeste 0 -- -- 34
2020-09-10 16:00:00 31.5 7 Norte 18 Noroeste 0 -- -- 35
2020-09-10 15:00:00 30.7 3 Nordeste 24 Norte 0 -- -- 38
2020-09-10 14:00:00 29.2 10 Noroeste 22 Noroeste 0 -- -- 44
2020-09-10 13:00:00 27.9 9 Noroeste 17 Oeste 0 -- -- 48
2020-09-10 12:00:00 26.5 4 Oeste 12 Noroeste 0 -- -- 50
2020-09-10 11:00:00 25.2 0 Calma 9 Noroeste 0 -- -- 53
2020-09-10 10:00:00 23 2 Oeste 8 Nordeste 0 -- -- 57
2020-09-10 09:00:00 20.6 5 Nordeste 7 Nordeste 0 -- -- 60
2020-09-10 08:00:00 19.7 7 Norte 10 Noroeste 0 -- -- 60
2020-09-10 07:00:00 19.6 0 Calma 12 Norte 0 -- -- 60
2020-09-10 06:00:00 20.8 8 Noroeste 18 Noroeste 0 -- -- 58
2020-09-10 05:00:00 20.7 6 Noroeste 19 Noroeste 0 -- -- 57
2020-09-10 04:00:00 21.6 8 Noroeste 20 Noroeste 0 -- -- 58
2020-09-10 03:00:00 22.5 7 Oeste 20 Noroeste 0 -- -- 57
2020-09-10 02:00:00 22.9 10 Oeste 22 Oeste 0 -- -- 52
2020-09-10 01:00:00 23.6 8 Noroeste 13 Noroeste 0 -- -- 46
2020-09-10 00:00:00 24.7 6 Noroeste 11 Noroeste 0 -- -- 43
2020-09-09 23:00:00 25.1 4 Norte 7 Noroeste 0 -- -- 42
2020-09-09 22:00:00 25.6 0 Calma 4 Sudeste 0 -- -- 41
2020-09-09 21:00:00 25.9 0 Calma 11 Oeste 0 -- -- 41
2020-09-09 20:00:00 29 5 Noroeste 17 Noroeste 0 -- -- 38
2020-09-09 19:00:00 29.6 7 Noroeste 20 Noroeste 0 -- -- 39
2020-09-09 18:00:00 30 11 Noroeste 25 Oeste 0 -- -- 40
2020-09-09 17:00:00 30 7 Norte 24 Oeste 0 -- -- 42
2020-09-09 16:00:00 29.2 8 Noroeste 22 Noroeste 0 -- -- 47
2020-09-09 15:00:00 28.9 11 Oeste 21 Oeste 0 -- -- 50
2020-09-09 14:00:00 27.4 9 Noroeste 22 Noroeste 0 -- -- 54
2020-09-09 13:00:00 26.3 11 Noroeste 21 Noroeste 0 -- -- 57
2020-09-09 12:00:00 25.8 3 Nordeste 11 Sudeste 0 -- -- 59
2020-09-09 11:00:00 23.8 2 Sudeste 15 Este 0 -- -- 66
2020-09-09 10:00:00 21.9 9 Este 18 Este 0 -- -- 73
2020-09-09 09:00:00 18.9 14 Este 18 Este 0 -- -- 81
2020-09-09 08:00:00 18 10 Este 17 Este 0 -- -- 81
2020-09-09 07:00:00 17.8 5 Este 15 Este 0 -- -- 79
2020-09-09 06:00:00 18.4 11 Este 15 Sudeste 0 -- -- 78
2020-09-09 05:00:00 18.5 5 Noroeste 10 Noroeste 0 -- -- 78
2020-09-09 04:00:00 18.7 3 Nordeste 14 Este 0 -- -- 74
2020-09-09 03:00:00 18.7 5 Norte 12 Noroeste 0 -- -- 73
2020-09-09 02:00:00 19.5 7 Noroeste 16 Noroeste 0 -- -- 70
2020-09-09 01:00:00 20 5 Norte 17 Noroeste 0 -- -- 66
2020-09-09 00:00:00 20.4 5 Noroeste 16 Noroeste 0 -- -- 63
2020-09-08 23:00:00 20.9 9 Noroeste 19 Noroeste 0 -- -- 61
2020-09-08 22:00:00 22.1 9 Noroeste 15 Norte 0 -- -- 57
2020-09-08 21:00:00 23.6 9 Noroeste 33 Oeste 0 -- -- 53
2020-09-08 20:00:00 26.1 19 Oeste 30 Oeste 0 -- -- 49
2020-09-08 19:00:00 28.4 15 Oeste 31 Oeste 0 -- -- 47
2020-09-08 18:00:00 29.8 11 Oeste 29 Oeste 0 -- -- 46
2020-09-08 17:00:00 29.8 15 Oeste 30 Oeste 0 -- -- 46
2020-09-08 16:00:00 27.1 8 Noroeste 19 Noroeste 0 -- -- 52
2020-09-08 15:00:00 27.5 4 Noroeste 14 Oeste 0 -- -- 53
2020-09-08 14:00:00 28.8 7 Oeste 17 Oeste 0 -- -- 54
2020-09-08 13:00:00 26.7 3 Oeste 14 Oeste 0 -- -- 59
2020-09-08 12:00:00 24.9 5 Oeste 12 Noroeste 0 -- -- 66
2020-09-08 11:00:00 23.5 4 Noroeste 10 Noroeste 0 -- -- 68
2020-09-08 10:00:00 21.7 0 Calma 5 Noroeste 0 -- -- 74
2020-09-08 09:00:00 20.1 0 Calma 9 Norte 0 -- -- 80
2020-09-08 08:00:00 19.7 0 Calma 12 Este 0 -- -- 80
2020-09-08 07:00:00 19.7 8 Este 12 Sudeste 0 -- -- 79
2020-09-08 06:00:00 19.9 4 Norte 16 Norte 0 -- -- 80
2020-09-08 05:00:00 20.4 5 Noroeste 15 Noroeste 0 -- -- 77
2020-09-08 04:00:00 20.5 5 Noroeste 15 Noroeste 0 -- -- 68
2020-09-08 03:00:00 21.5 7 Noroeste 17 Noroeste 0 -- -- 57
2020-09-08 02:00:00 23.7 6 Noroeste 20 Noroeste 0 -- -- 51
2020-09-08 01:00:00 24.3 9 Este 18 Nordeste 0 -- -- 41
2020-09-08 00:00:00 25.2 11 Nordeste 15 Nordeste 0 -- -- 40
2020-09-07 23:00:00 27.1 6 Este 16 Este 0 -- -- 39
2020-09-07 22:00:00 27.3 7 Nordeste 15 Norte 0 -- -- 41
2020-09-07 21:00:00 28.9 5 Oeste 13 Oeste 0 -- -- 41
2020-09-07 20:00:00 31.9 8 Oeste 19 Noroeste 0 -- -- 38
2020-09-07 19:00:00 33.4 9 Oeste 24 Norte 0 -- -- 37
2020-09-07 18:00:00 33 11 Noroeste 26 Noroeste 0 -- -- 37
2020-09-07 17:00:00 34.2 7 Noroeste 19 Oeste 0 -- -- 38
2020-09-07 16:00:00 31.3 7 Norte 21 Oeste 0 -- -- 42
2020-09-07 15:00:00 31.6 10 Noroeste 18 Noroeste 0 -- -- 45
2020-09-07 14:00:00 30.4 6 Oeste 20 Noroeste 0 -- -- 49
2020-09-07 13:00:00 28.5 8 Oeste 18 Noroeste 0 -- -- 53
2020-09-07 12:00:00 27.3 2 Oeste 13 Oeste 0 -- -- 56
2020-09-07 11:00:00 25.9 6 Oeste 14 Oeste 0 -- -- 59
2020-09-07 10:00:00 24 6 Noroeste 15 Noroeste 0 -- -- 62
2020-09-07 09:00:00 22.8 8 Noroeste 15 Noroeste 0 -- -- 64
2020-09-07 08:00:00 21.5 6 Noroeste 10 Noroeste 0 -- -- 65
2020-09-07 07:00:00 22.1 3 Noroeste 16 Norte 0 -- -- 64
2020-09-07 06:00:00 22.2 8 Noroeste 14 Noroeste 0 -- -- 64
2020-09-07 05:00:00 21.2 6 Noroeste 15 Noroeste 0 -- -- 67
2020-09-07 04:00:00 22.2 10 Noroeste 22 Noroeste 0 -- -- 63
2020-09-07 03:00:00 23.4 10 Norte 21 Noroeste 0 -- -- 60
2020-09-07 02:00:00 24 14 Noroeste 28 Oeste 0 -- -- 59
2020-09-07 01:00:00 24.4 15 Oeste 32 Oeste 0 -- -- 58
2020-09-07 00:00:00 23.6 8 Noroeste 26 Noroeste 0 -- -- 57
2020-09-06 23:00:00 24.7 13 Noroeste 25 Noroeste 0 -- -- 53
2020-09-06 22:00:00 26.8 8 Noroeste 20 Noroeste 0 -- -- 47
2020-09-06 21:00:00 27.9 6 Noroeste 17 Oeste 0 -- -- 46
2020-09-06 20:00:00 30.9 11 Oeste 21 Oeste 0 -- -- 43
2020-09-06 19:00:00 32.3 12 Oeste 24 Oeste 0 -- -- 43
2020-09-06 18:00:00 32.6 12 Oeste 23 Oeste 0 -- -- 43
2020-09-06 17:00:00 32.6 9 Noroeste 24 Noroeste 0 -- -- 42
2020-09-06 16:00:00 32.2 8 Noroeste 24 Norte 0 -- -- 43
2020-09-06 15:00:00 31.4 9 Noroeste 18 Oeste 0 -- -- 45
2020-09-06 14:00:00 30.1 9 Noroeste 19 Noroeste 0 -- -- 47
2020-09-06 13:00:00 28.7 9 Oeste 18 Noroeste 0 -- -- 51
2020-09-06 12:00:00 27.4 6 Noroeste 13 Noroeste 0 -- -- 54
2020-09-06 11:00:00 25.2 3 Oeste 9 Noroeste 0 -- -- 57
2020-09-06 10:00:00 23.8 2 Nordeste 11 Nordeste 0 -- -- 60
2020-09-06 09:00:00 21 4 Nordeste 16 Este 0 -- -- 63
2020-09-06 08:00:00 20.3 4 Nordeste 15 Nordeste 0 -- -- 62
2020-09-06 07:00:00 21.3 2 Nordeste 10 Este 0 -- -- 60
2020-09-06 06:00:00 21.2 2 Nordeste 6 Noroeste 0 -- -- 60
2020-09-06 05:00:00 21.1 2 Nordeste 9 Este 0 -- -- 60
2020-09-06 04:00:00 20.9 2 Este 16 Norte 0 -- -- 60
2020-09-06 03:00:00 21.2 14 Norte 18 Norte 0 -- -- 60
2020-09-06 02:00:00 22.3 10 Norte 15 Norte 0 -- -- 57
2020-09-06 01:00:00 22.9 8 Norte 20 Noroeste 0 -- -- 56
2020-09-06 00:00:00 23.2 12 Noroeste 22 Noroeste 0 -- -- 54
2020-09-05 23:00:00 24.7 12 Noroeste 18 Norte 0 -- -- 51
2020-09-05 22:00:00 26.1 9 Norte 12 Norte 0 -- -- 47
2020-09-05 21:00:00 27.8 7 Oeste 18 Oeste 0 -- -- 46
2020-09-05 20:00:00 31 10 Oeste 16 Oeste 0 -- -- 43
2020-09-05 19:00:00 32.1 11 Noroeste 21 Oeste 0 -- -- 41
2020-09-05 18:00:00 32.7 11 Norte 26 Noroeste 0 -- -- 41
2020-09-05 17:00:00 32.3 6 Noroeste 20 Noroeste 0 -- -- 42
2020-09-05 16:00:00 31.6 8 Noroeste 24 Noroeste 0 -- -- 44
2020-09-05 15:00:00 30 10 Noroeste 22 Norte 0 -- -- 47
2020-09-05 14:00:00 29.7 4 Oeste 20 Noroeste 0 -- -- 49
2020-09-05 13:00:00 28.1 6 Noroeste 17 Noroeste 0 -- -- 51
2020-09-05 12:00:00 25.6 5 Oeste 12 Noroeste 0 -- -- 55
2020-09-05 11:00:00 24.3 5 Noroeste 20 Oeste 0 -- -- 59
2020-09-05 10:00:00 22.4 8 Este 26 Este 0 -- -- 63
2020-09-05 09:00:00 19.7 17 Este 28 Este 0 -- -- 65
2020-09-05 08:00:00 19.2 14 Este 22 Este 0 -- -- 63
2020-09-05 07:00:00 19.8 9 Nordeste 15 Nordeste 0 -- -- 60
2020-09-05 06:00:00 20.2 2 Norte 9 Noroeste 0 -- -- 60
2020-09-05 05:00:00 20.6 4 Norte 8 Norte 0 -- -- 59
2020-09-05 04:00:00 20.2 5 Norte 12 Noroeste 0 -- -- 60
2020-09-05 03:00:00 20.8 2 Sudeste 15 Noroeste 0 -- -- 59
2020-09-05 02:00:00 20.9 0 Calma 16 Noroeste 0 -- -- 60
2020-09-05 01:00:00 20.9 7 Norte 21 Noroeste 0 -- -- 60
2020-09-05 00:00:00 21.7 13 Noroeste 22 Noroeste 0 -- -- 58
2020-09-04 23:00:00 22.6 12 Noroeste 23 Oeste 0 -- -- 55
2020-09-04 22:00:00 23.8 12 Noroeste 23 Oeste 0 -- -- 52
2020-09-04 21:00:00 25 12 Noroeste 27 Noroeste 0 -- -- 47
2020-09-04 20:00:00 28.5 16 Oeste 30 Oeste 0 -- -- 41
2020-09-04 19:00:00 30.8 18 Oeste 32 Oeste 0 -- -- 36
2020-09-04 18:00:00 32.5 12 Noroeste 21 Oeste 0 -- -- 36
2020-09-04 17:00:00 32.5 10 Noroeste 22 Noroeste 0 -- -- 37
2020-09-04 16:00:00 31.8 7 Oeste 23 Oeste 0 -- -- 37
2020-09-04 15:00:00 30.9 10 Noroeste 26 Oeste 0 -- -- 38
2020-09-04 14:00:00 29.9 12 Noroeste 30 Noroeste 0 -- -- 40
2020-09-04 13:00:00 30.1 6 Sudoeste 18 Este 0 -- -- 39
2020-09-04 12:00:00 27.4 5 Noroeste 13 Noroeste 0 -- -- 47
2020-09-04 11:00:00 24.5 2 Oeste 10 Noroeste 0 -- -- 55
2020-09-04 10:00:00 21.6 6 Noroeste 12 Norte 0 -- -- 60
2020-09-04 09:00:00 20.1 8 Norte 11 Noroeste 0 -- -- 59
2020-09-04 08:00:00 19.5 0 Calma 29 Este 0 -- -- 57
2020-09-04 07:00:00 22.8 18 Sudeste 27 Sudeste 0 -- -- 48
2020-09-04 06:00:00 22.3 11 Sudeste 22 Sudeste 0 -- -- 49
2020-09-04 05:00:00 21.5 11 Nordeste 17 Nordeste 0 -- -- 54
2020-09-04 04:00:00 22.8 6 Este 21 Este 0 -- -- 50
2020-09-04 03:00:00 24 11 Este 36 Sudeste 0 -- -- 48
2020-09-04 02:00:00 25.1 14 Sudeste 40 Sudeste 0 -- -- 49
2020-09-04 01:00:00 23.7 6 Este 17 Sudeste 0 -- -- 52
2020-09-04 00:00:00 22.8 8 Norte 14 Norte 0 -- -- 51
2020-09-03 23:00:00 23.7 6 Norte 14 Noroeste 0 -- -- 48
2020-09-03 22:00:00 24.3 8 Noroeste 19 Noroeste 0 -- -- 46
2020-09-03 21:00:00 25.8 12 Oeste 27 Oeste 0 -- -- 44
2020-09-03 20:00:00 28.1 17 Oeste 31 Oeste 0 -- -- 40
2020-09-03 19:00:00 30.4 17 Oeste 32 Oeste 0 -- -- 40
2020-09-03 18:00:00 33.2 4 Este 19 Oeste 0 -- -- 37
2020-09-03 17:00:00 32.3 10 Noroeste 28 Oeste 0 -- -- 38
2020-09-03 16:00:00 31.4 6 Oeste 23 Oeste 0 -- -- 39
2020-09-03 15:00:00 30.6 13 Oeste 57 Oeste 0 -- -- 41
2020-09-03 14:00:00 31 4 Sudeste 14 Este 0 -- -- 42
2020-09-03 13:00:00 28.9 9 Sur 20 Sur 0 -- -- 46
2020-09-03 12:00:00 26.9 4 Noroeste 11 Norte 0 -- -- 49
2020-09-03 11:00:00 24.9 5 Sur 11 Este 0 -- -- 52
2020-09-03 10:00:00 22.5 4 Sur 7 Sur 0 -- -- 53
2020-09-03 09:00:00 20 3 Este 14 Este 0 -- -- 55
2020-09-03 08:00:00 20.9 13 Este 20 Sudeste 0 -- -- 52
2020-09-03 07:00:00 20.6 13 Este 15 Este 0 -- -- 51
2020-09-03 06:00:00 20.5 7 Este 13 Este 0 -- -- 52
2020-09-03 05:00:00 20.2 5 Este 11 Este 0 -- -- 52
2020-09-03 04:00:00 21.5 3 Este 9 Norte 0 -- -- 50
2020-09-03 03:00:00 20.7 6 Norte 16 Noroeste 0 -- -- 52
2020-09-03 02:00:00 21.6 7 Norte 13 Norte 0 -- -- 50
2020-09-03 01:00:00 22.6 5 Nordeste 12 Norte 0 -- -- 49
2020-09-03 00:00:00 22.4 6 Norte 20 Noroeste 0 -- -- 49
2020-09-02 23:00:00 23.1 8 Norte 17 Noroeste 0 -- -- 47
2020-09-02 22:00:00 23.8 10 Noroeste 17 Noroeste 0 -- -- 47
2020-09-02 21:00:00 25.4 9 Oeste 27 Oeste 0 -- -- 44
2020-09-02 20:00:00 28.7 13 Oeste 23 Oeste 0 -- -- 39
2020-09-02 19:00:00 30.6 8 Noroeste 21 Norte 0 -- -- 36
2020-09-02 18:00:00 31.1 8 Noroeste 22 Norte 0 -- -- 36
2020-09-02 17:00:00 30.9 8 Noroeste 25 Norte 0 -- -- 36
2020-09-02 16:00:00 30.9 8 Noroeste 22 Noroeste 0 -- -- 37
2020-09-02 15:00:00 29 11 Noroeste 22 Noroeste 0 -- -- 39
2020-09-02 14:00:00 28 9 Noroeste 19 Oeste 0 -- -- 40
2020-09-02 13:00:00 26.7 5 Oeste 15 Noroeste 0 -- -- 41
2020-09-02 12:00:00 25.5 6 Noroeste 14 Oeste 0 -- -- 41
2020-09-02 11:00:00 23.8 4 Oeste 9 Oeste 0 -- -- 44
2020-09-02 10:00:00 22.4 0 Calma 4 Norte 0 -- -- 43
2020-09-02 09:00:00 21.2 2 Noroeste 4 Norte 0 -- -- 42
2020-09-02 08:00:00 20.4 3 Norte 5 Nordeste 0 -- -- 43
2020-09-02 07:00:00 20.7 0 Calma 5 Noroeste 0 -- -- 43
2020-09-02 06:00:00 20.5 3 Sudeste 11 Noroeste 0 -- -- 44
2020-09-02 05:00:00 21.1 4 Noroeste 17 Noroeste 0 -- -- 44
2020-09-02 04:00:00 21.1 5 Noroeste 18 Oeste 0 -- -- 44
2020-09-02 03:00:00 21.3 10 Noroeste 24 Norte 0 -- -- 46
2020-09-02 02:00:00 21.5 9 Noroeste 20 Oeste 0 -- -- 46
2020-09-02 01:00:00 21.2 8 Noroeste 26 Oeste 0 -- -- 46
2020-09-02 00:00:00 22.2 13 Oeste 33 Noroeste 0 -- -- 46
2020-09-01 23:00:00 23.3 5 Noroeste 15 Noroeste 0 -- -- 45
2020-09-01 22:00:00 23.7 4 Noroeste 10 Oeste 0 -- -- 45
2020-09-01 21:00:00 24.4 4 Oeste 13 Oeste 0 -- -- 45
2020-09-01 20:00:00 27.3 9 Oeste 19 Noroeste 0 -- -- 42
2020-09-01 19:00:00 28.1 12 Noroeste 21 Oeste 0 -- -- 42
2020-09-01 18:00:00 28.8 8 Oeste 18 Noroeste 0 -- -- 42
2020-09-01 17:00:00 29 6 Oeste 23 Noroeste 0 -- -- 42
2020-09-01 16:00:00 27.7 8 Noroeste 21 Oeste 0 -- -- 43
2020-09-01 15:00:00 25.4 9 Noroeste 19 Oeste 0 -- -- 47
2020-09-01 14:00:00 24 9 Oeste 18 Oeste 0 -- -- 51
2020-09-01 13:00:00 22.9 6 Noroeste 11 Oeste 0 -- -- 55
2020-09-01 12:00:00 22.7 3 Sur 9 Noroeste 0 -- -- 56
2020-09-01 11:00:00 22 2 Oeste 12 Noroeste 0 -- -- 57
2020-09-01 10:00:00 20.7 5 Noroeste 8 Norte 0 -- -- 59
2020-09-01 09:00:00 19.8 0 Calma 7 Norte 0 -- -- 60
2020-09-01 08:00:00 19.2 3 Noroeste 11 Norte 0 -- -- 59
2020-09-01 07:00:00 18.7 6 Noroeste 9 Norte 0 -- -- 58
2020-09-01 06:00:00 19.2 2 Sudeste 6 Este 0 -- -- 57
2020-09-01 05:00:00 19.5 0 Calma 11 Nordeste 0 -- -- 56
2020-09-01 04:00:00 19.6 8 Nordeste 15 Nordeste 0 -- -- 56
2020-09-01 03:00:00 20.4 6 Norte 13 Norte 0 -- -- 54
2020-09-01 02:00:00 20.2 8 Norte 19 Norte 0 -- -- 56
2020-09-01 01:00:00 20.7 11 Noroeste 20 Noroeste 0 -- -- 56
2020-09-01 00:00:00 21.3 11 Norte 15 Norte 0 -- -- 53
2020-08-31 23:00:00 21.6 10 Norte 15 Noroeste 0 -- -- 51
2020-08-31 22:00:00 22.5 9 Noroeste 22 Noroeste 0 -- -- 48
2020-08-31 21:00:00 24 12 Oeste 27 Oeste 0 -- -- 43
2020-08-31 20:00:00 27 16 Oeste 27 Oeste 0 -- -- 40
2020-08-31 19:00:00 29.6 10 Noroeste 20 Noroeste 0 -- -- 37
2020-08-31 18:00:00 30.4 12 Noroeste 24 Noroeste 0 -- -- 37
2020-08-31 17:00:00 30.5 12 Noroeste 22 Oeste 0 -- -- 37
2020-08-31 16:00:00 30.1 0 Calma 20 Sudoeste 0 -- -- 38
2020-08-31 15:00:00 28.6 3 Oeste 18 Oeste 0 -- -- 39
2020-08-31 14:00:00 26.7 10 Noroeste 22 Noroeste 0 -- -- 41
2020-08-31 13:00:00 25.9 10 Noroeste 19 Noroeste 0 -- -- 44
2020-08-31 12:00:00 24.5 6 Oeste 12 Noroeste 0 -- -- 46
2020-08-31 11:00:00 22.6 4 Oeste 10 Sudoeste 0 -- -- 49
2020-08-31 10:00:00 20.2 4 Oeste 7 Oeste 0 -- -- 53
2020-08-31 09:00:00 18.3 0 Calma 13 Nordeste 0 -- -- 53
2020-08-31 08:00:00 17.6 9 Este 13 Este 0 -- -- 50
2020-08-31 07:00:00 17.9 3 Sudeste 6 Sudeste 0 -- -- 54
2020-08-31 06:00:00 18.9 0 Calma 10 Este 0 -- -- 47
2020-08-31 05:00:00 19.1 4 Nordeste 9 Noroeste 0 -- -- 46
2020-08-31 04:00:00 19.1 5 Noroeste 12 Este 0 -- -- 43
2020-08-31 03:00:00 19.6 12 Nordeste 14 Nordeste 0 -- -- 38
2020-08-31 02:00:00 20.8 10 Sudeste 21 Sudeste 0 -- -- 37
2020-08-31 01:00:00 20.8 12 Sudeste 22 Sudeste 0 -- -- 37
2020-08-31 00:00:00 21.6 3 Sur 20 Nordeste 0 -- -- 36
2020-08-30 23:00:00 23 4 Norte 14 Norte 0 -- -- 34
2020-08-30 22:00:00 23.5 3 Norte 5 Norte 0 -- -- 34
2020-08-30 21:00:00 24.3 4 Norte 10 Noroeste 0 -- -- 33
2020-08-30 20:00:00 27 9 Noroeste 18 Noroeste 0 -- -- 31
2020-08-30 19:00:00 27.8 10 Oeste 21 Oeste 0 -- -- 30
2020-08-30 18:00:00 28.5 6 Norte 23 Noroeste 0 -- -- 31
2020-08-30 17:00:00 27.8 8 Noroeste 20 Oeste 0 -- -- 32
2020-08-30 16:00:00 27.4 6 Noroeste 21 Noroeste 0 -- -- 33
2020-08-30 15:00:00 27.7 7 Sudeste 22 Nordeste 0 -- -- 33
2020-08-30 14:00:00 27.1 5 Nordeste 21 Norte 0 -- -- 35
2020-08-30 13:00:00 25.8 7 Nordeste 17 Nordeste 0 -- -- 37
2020-08-30 12:00:00 24.6 9 Sudeste 22 Este 0 -- -- 40
2020-08-30 11:00:00 21.6 14 Este 21 Este 0 -- -- 43
2020-08-30 10:00:00 19.8 11 Este 17 Este 0 -- -- 44
2020-08-30 09:00:00 18.7 12 Este 18 Este 0 -- -- 44
2020-08-30 08:00:00 18.3 10 Este 20 Este 0 -- -- 44
2020-08-30 07:00:00 18.1 9 Sudeste 20 Sudeste 0 -- -- 44
2020-08-30 06:00:00 17.8 5 Sudeste 19 Sudeste 0 -- -- 44
2020-08-30 05:00:00 18.6 6 Sudeste 19 Sudeste 0 -- -- 42
2020-08-30 04:00:00 19.2 2 Sur 18 Este 0 -- -- 41
2020-08-30 03:00:00 19.6 2 Este 17 Sudeste 0 -- -- 39
2020-08-30 02:00:00 19.9 3 Sudeste 12 Sudeste 0 -- -- 39
2020-08-30 01:00:00 20.8 4 Nordeste 11 Nordeste 0 -- -- 38
2020-08-30 00:00:00 20.8 3 Este 10 Este 0 -- -- 38
2020-08-29 23:00:00 21.6 3 Sur 16 Noroeste 0 -- -- 37
2020-08-29 22:00:00 22.7 6 Norte 15 Norte 0 -- -- 36
2020-08-29 21:00:00 23.8 4 Norte 13 Norte 0 -- -- 36
2020-08-29 20:00:00 26.4 3 Sudeste 16 Norte 0 -- -- 36
2020-08-29 19:00:00 -- -- -- -- -- -- -- -- --
2020-08-29 18:00:00 -- -- -- -- -- -- -- -- --
2020-08-29 17:00:00 25.8 10 Noroeste 27 Norte 0 -- -- 35
2020-08-29 16:00:00 24.8 15 Oeste 33 Noroeste 0 -- -- 36
2020-08-29 15:00:00 23.8 15 Noroeste 31 Oeste 0 -- -- 39
2020-08-29 14:00:00 22.4 16 Oeste 31 Noroeste 0 -- -- 46
2020-08-29 13:00:00 21.3 17 Oeste 29 Noroeste 0 -- -- 52
2020-08-29 12:00:00 19.5 17 Noroeste 27 Noroeste 0 -- -- 56
2020-08-29 11:00:00 18.5 15 Noroeste 25 Oeste 0 -- -- 58
2020-08-29 10:00:00 17 13 Oeste 20 Noroeste 0 -- -- 58
2020-08-29 09:00:00 15.3 9 Noroeste 18 Oeste 0 -- -- 59
2020-08-29 08:00:00 15.6 8 Noroeste 14 Noroeste 0 -- -- 55
2020-08-29 07:00:00 16.3 6 Noroeste 14 Norte 0 -- -- 53
2020-08-29 06:00:00 17.4 7 Noroeste 18 Noroeste 0 -- -- 51
2020-08-29 05:00:00 17.7 5 Noroeste 20 Oeste 0 -- -- 47
2020-08-29 04:00:00 19.1 10 Oeste 23 Oeste 0 -- -- 45
2020-08-29 03:00:00 20.6 12 Oeste 23 Oeste 0 -- -- 42
2020-08-29 02:00:00 21.7 9 Noroeste 20 Oeste 0 -- -- 39
2020-08-29 01:00:00 22.9 9 Noroeste 16 Noroeste 0 -- -- 42
2020-08-29 00:00:00 24.2 6 Noroeste 25 Oeste 0 -- -- 49
2020-08-28 23:00:00 25.6 17 Oeste 35 Oeste 0 -- -- 54
2020-08-28 22:00:00 26.9 19 Oeste 33 Oeste 0 -- -- 51
2020-08-28 21:00:00 28.1 19 Oeste 34 Oeste 0 -- -- 46
2020-08-28 20:00:00 30.2 19 Noroeste 32 Oeste 0 -- -- 40
2020-08-28 19:00:00 30.9 20 Noroeste 36 Oeste 0 -- -- 40
2020-08-28 18:00:00 31.5 24 Oeste 37 Sudoeste 0 -- -- 42
2020-08-28 17:00:00 31.8 18 Noroeste 42 Oeste 0 -- -- 41
2020-08-28 16:00:00 31 21 Oeste 34 Oeste 0 -- -- 44
2020-08-28 15:00:00 30.5 16 Oeste 32 Oeste 0 -- -- 45
2020-08-28 14:00:00 29.2 20 Oeste 34 Oeste 0 -- -- 46
2020-08-28 13:00:00 27.9 19 Noroeste 33 Oeste 0 -- -- 51
2020-08-28 12:00:00 26.3 20 Oeste 32 Oeste 0 -- -- 53
2020-08-28 11:00:00 24.6 15 Noroeste 23 Oeste 0 -- -- 55
2020-08-28 10:00:00 23.4 12 Norte 28 Norte 0 -- -- 55
2020-08-28 09:00:00 23.3 10 Oeste 30 Noroeste 0 -- -- 52
2020-08-28 08:00:00 24.2 14 Noroeste 28 Noroeste 0 -- -- 50
2020-08-28 07:00:00 24 8 Noroeste 20 Oeste 0 -- -- 50
2020-08-28 06:00:00 24.6 6 Noroeste 16 Norte 0 -- -- 48
2020-08-28 05:00:00 25.2 7 Noroeste 18 Noroeste 0 -- -- 47
2020-08-28 04:00:00 25.9 6 Noroeste 15 Sudoeste 0 -- -- 45
2020-08-28 03:00:00 26 5 Noroeste 24 Oeste 0 -- -- 44
2020-08-28 02:00:00 26.8 11 Noroeste 26 Oeste 0 -- -- 42
2020-08-28 01:00:00 28.2 13 Oeste 36 Oeste 0 -- -- 39
2020-08-28 00:00:00 29.2 18 Oeste 36 Oeste 0 -- -- 38
2020-08-27 23:00:00 29.8 16 Oeste 30 Sudoeste 0 -- -- 35
2020-08-27 22:00:00 30.4 10 Oeste 20 Oeste 0 -- -- 33
2020-08-27 21:00:00 31.4 8 Oeste 30 Oeste 0 -- -- 29
2020-08-27 20:00:00 34.2 19 Oeste 33 Oeste 0 -- -- 27
2020-08-27 19:00:00 36 17 Oeste 39 Noroeste 0 -- -- 26
2020-08-27 18:00:00 36.8 20 Oeste 36 Noroeste 0 -- -- 26
2020-08-27 17:00:00 37.1 19 Oeste 33 Oeste 0 -- -- 28
2020-08-27 16:00:00 37.5 14 Oeste 31 Noroeste 0 -- -- 29
2020-08-27 15:00:00 36.6 13 Oeste 26 Oeste 0 -- -- 30
2020-08-27 14:00:00 35 10 Oeste 25 Noroeste 0 -- -- 33
2020-08-27 13:00:00 34.7 13 Oeste 19 Noroeste 0 -- -- 36
2020-08-27 12:00:00 32.2 7 Noroeste 17 Oeste 0 -- -- 39
2020-08-27 11:00:00 30.1 5 Oeste 10 Noroeste 0 -- -- 41
2020-08-27 10:00:00 28.9 2 Noroeste 5 Noroeste 0 -- -- 42
2020-08-27 09:00:00 27.1 2 Nordeste 4 Norte 0 -- -- 43
2020-08-27 08:00:00 26.6 0 Calma 10 Noroeste 0 -- -- 43
2020-08-27 07:00:00 27.6 7 Norte 12 Noroeste 0 -- -- 41
2020-08-27 06:00:00 27.4 6 Norte 14 Norte 0 -- -- 41
2020-08-27 05:00:00 27.6 5 Norte 11 Noroeste 0 -- -- 41
2020-08-27 04:00:00 28.4 3 Noroeste 15 Noroeste 0 -- -- 41
2020-08-27 03:00:00 28.9 9 Noroeste 22 Noroeste 0 -- -- 41
2020-08-27 02:00:00 29.3 11 Noroeste 21 Noroeste 0 -- -- 41
2020-08-27 01:00:00 29.3 11 Noroeste 26 Noroeste 0 -- -- 42
2020-08-27 00:00:00 30.3 14 Oeste 24 Oeste 0 -- -- 39
2020-08-26 23:00:00 30.8 13 Oeste 22 Oeste 0 -- -- 36
2020-08-26 22:00:00 31.3 6 Oeste 11 Sudoeste 0 -- -- 35
2020-08-26 21:00:00 32.4 3 Oeste 15 Oeste 0 -- -- 33
2020-08-26 20:00:00 34.4 9 Oeste 20 Oeste 0 -- -- 31
2020-08-26 19:00:00 35.8 12 Oeste 23 Noroeste 0 -- -- 29
2020-08-26 18:00:00 37.6 7 Noroeste 22 Noroeste 0 -- -- 30
2020-08-26 17:00:00 37.6 8 Noroeste 23 Oeste 0 -- -- 31
2020-08-26 16:00:00 36.9 7 Noroeste 23 Noroeste 0 -- -- 35
2020-08-26 15:00:00 35.2 12 Noroeste 23 Norte 0 -- -- 39
2020-08-26 14:00:00 34.6 5 Sur 16 Oeste 0 -- -- 41
2020-08-26 13:00:00 32.5 8 Noroeste 19 Oeste 0 -- -- 46
2020-08-26 12:00:00 31 9 Noroeste 18 Noroeste 0 -- -- 49
2020-08-26 11:00:00 29.4 4 Oeste 9 Oeste 0 -- -- 52
2020-08-26 10:00:00 27.5 3 Noroeste 7 Noroeste 0 -- -- 55
2020-08-26 09:00:00 25.6 3 Este 8 Noroeste 0 -- -- 57
2020-08-26 08:00:00 24.1 8 Este 10 Este 0 -- -- 58
2020-08-26 07:00:00 25.6 3 Nordeste 5 Este 0 -- -- 56
2020-08-26 06:00:00 26.1 2 Noroeste 11 Norte 0 -- -- 55
2020-08-26 05:00:00 26.3 5 Noroeste 13 Noroeste 0 -- -- 54
2020-08-26 04:00:00 26.8 7 Noroeste 18 Noroeste 0 -- -- 54
2020-08-26 03:00:00 26.8 8 Noroeste 26 Oeste 0 -- -- 53
2020-08-26 02:00:00 27.2 12 Noroeste 25 Oeste 0 -- -- 49
2020-08-26 01:00:00 28.2 9 Noroeste 22 Norte 0 -- -- 43
2020-08-26 00:00:00 28.6 8 Noroeste 18 Noroeste 0 -- -- 42